Terminal Aerodrome Forecast
Issued by NWS Tampa Bay Area, FL

Home | Current Version | Previous Version | Text Only | Print | Product List | Glossary Off
Versions: 1 2 3 4 5 6 7 8 9 10 11 12

977
FTUS42 KTBW 300539
TAFFMY
TAF
KFMY 300539Z 3006/3106 VRB04KT P6SM OVC050
     FM301300 14006KT P6SM FEW250
     FM301500 15010G15KT P6SM FEW035 FEW250
     FM301900 21012G18KT P6SM FEW060 SCT250=

USA.gov is the U.S. government's official web portal to all federal, state and local government web resources and services.